createdAt,value
2019-02-15T00:00:19.077Z,2.03
2019-02-15T00:02:47.732Z,2.30
2019-02-15T00:05:16.433Z,1.83
2019-02-15T00:07:44.844Z,2.03
2019-02-15T00:10:14.557Z,2.20
2019-02-15T00:12:43.002Z,2.23
2019-02-15T00:15:11.681Z,2.20
2019-02-15T00:17:52.036Z,2.40
2019-02-15T00:20:22.845Z,2.47
2019-02-15T00:22:51.561Z,1.90
2019-02-15T00:25:19.973Z,2.00
2019-02-15T00:27:48.404Z,2.00
2019-02-15T00:30:17.387Z,1.90
2019-02-15T00:32:47.073Z,2.20
2019-02-15T00:35:17.008Z,2.37
2019-02-15T00:37:47.907Z,2.00
2019-02-15T00:40:16.586Z,2.40
2019-02-15T00:42:45.346Z,2.23
2019-02-15T00:45:15.417Z,2.10
2019-02-15T00:47:48.517Z,2.20
2019-02-15T00:50:22.933Z,2.13
2019-02-15T00:52:53.257Z,1.93
2019-02-15T00:55:30.379Z,2.10
2019-02-15T00:58:05.902Z,1.90
2019-02-15T01:00:55.485Z,1.87
2019-02-15T01:03:43.574Z,2.10
2019-02-15T01:06:30.053Z,2.03
2019-02-15T01:09:02.805Z,2.10
2019-02-15T01:11:38.542Z,2.13
2019-02-15T01:14:06.947Z,1.80
2019-02-15T01:16:36.197Z,2.20
2019-02-15T01:19:04.617Z,2.10
2019-02-15T01:21:33.049Z,2.30
2019-02-15T01:24:01.464Z,1.90
2019-02-15T01:26:37.745Z,2.33
2019-02-15T01:29:10.789Z,1.73
2019-02-15T01:31:43.146Z,2.20
2019-02-15T01:34:21.152Z,2.10
2019-02-15T01:36:51.697Z,2.10
2019-02-15T01:39:21.882Z,2.00
2019-02-15T01:42:10.127Z,1.93
2019-02-15T01:44:43.308Z,1.90
2019-02-15T01:47:14.949Z,2.07
2019-02-15T01:49:44.263Z,2.20
2019-02-15T01:52:12.938Z,2.00
2019-02-15T01:54:42.376Z,1.80
2019-02-15T01:57:12.352Z,2.10
2019-02-15T01:59:40.783Z,2.10
2019-02-15T02:02:09.356Z,2.00
2019-02-15T02:04:38.533Z,2.17
2019-02-15T02:07:07.183Z,1.93
2019-02-15T02:09:35.605Z,1.80
2019-02-15T02:12:04.512Z,2.30
2019-02-15T02:14:32.925Z,1.83
2019-02-15T02:17:04.460Z,1.97
2019-02-15T02:19:34.493Z,1.80
2019-02-15T02:22:02.923Z,1.90
2019-02-15T02:24:32.445Z,2.23
2019-02-15T02:27:00.873Z,2.00
2019-02-15T02:29:29.394Z,1.80
2019-02-15T02:31:59.550Z,2.17
2019-02-15T02:34:29.185Z,1.80
2019-02-15T02:37:01.482Z,1.70
2019-02-15T02:39:31.674Z,2.20
2019-02-15T02:42:02.027Z,1.70
2019-02-15T02:44:30.459Z,1.97
2019-02-15T02:46:59.425Z,2.07
2019-02-15T02:49:28.004Z,2.17
2019-02-15T02:51:56.693Z,1.80
2019-02-15T02:54:25.137Z,1.97
2019-02-15T02:56:53.550Z,2.20
2019-02-15T02:59:22.789Z,2.00
2019-02-15T03:01:51.996Z,1.83
2019-02-15T03:04:20.427Z,2.10
2019-02-15T03:06:50.295Z,2.00
2019-02-15T03:09:19.273Z,1.93
2019-02-15T03:11:49.593Z,1.73
2019-02-15T03:14:18.117Z,2.03
2019-02-15T03:16:46.829Z,1.87
2019-02-15T03:19:15.507Z,1.80
2019-02-15T03:21:45.325Z,1.70
2019-02-15T03:24:13.738Z,1.80
2019-02-15T03:26:42.161Z,1.60
2019-02-15T03:29:11.693Z,1.80
2019-02-15T03:31:46.215Z,1.90
2019-02-15T03:34:18.012Z,1.90
2019-02-15T03:36:48.087Z,1.60
2019-02-15T03:39:20.851Z,1.93
2019-02-15T03:41:49.760Z,1.77
2019-02-15T03:44:22.174Z,1.60
2019-02-15T03:46:48.238Z,1.77
2019-02-15T03:49:16.668Z,1.73
2019-02-15T03:51:45.078Z,1.50
2019-02-15T03:54:16.117Z,1.90
2019-02-15T03:56:44.543Z,1.53
2019-02-15T03:59:14.346Z,1.53
2019-02-15T04:01:42.761Z,1.57
2019-02-15T04:04:11.821Z,1.40
2019-02-15T04:06:40.237Z,1.80
2019-02-15T04:09:08.675Z,1.73
2019-02-15T04:11:37.074Z,1.63
2019-02-15T04:14:06.325Z,1.80
2019-02-15T04:16:37.583Z,1.60
2019-02-15T04:19:06.299Z,1.57
2019-02-15T04:21:37.889Z,1.70
2019-02-15T04:24:07.546Z,1.80
2019-02-15T04:26:38.923Z,1.60
2019-02-15T04:29:11.110Z,1.63
2019-02-15T04:31:41.662Z,1.73
2019-02-15T04:34:10.064Z,1.60
2019-02-15T04:36:38.777Z,1.70
2019-02-15T04:39:07.194Z,1.50
2019-02-15T04:41:38.653Z,1.70
2019-02-15T04:44:08.397Z,1.73
2019-02-15T04:46:39.569Z,1.37
2019-02-15T04:49:09.531Z,1.60
2019-02-15T04:51:41.257Z,1.50
2019-02-15T04:54:09.668Z,1.73
2019-02-15T04:56:38.110Z,1.63
2019-02-15T04:59:07.812Z,1.40
2019-02-15T05:01:39.206Z,1.60
2019-02-15T05:04:07.613Z,1.63
2019-02-15T05:06:36.026Z,1.70
2019-02-15T05:09:06.761Z,1.63
2019-02-15T05:11:35.439Z,1.50
2019-02-15T05:14:04.995Z,1.53
2019-02-15T05:16:33.648Z,1.67
2019-02-15T05:19:02.365Z,1.53
2019-02-15T05:21:30.764Z,1.60
2019-02-15T05:23:59.209Z,1.43
2019-02-15T05:26:29.735Z,1.40
2019-02-15T05:28:58.183Z,1.43
2019-02-15T05:31:26.578Z,1.53
2019-02-15T05:33:54.990Z,1.40
2019-02-15T05:36:23.432Z,1.60
2019-02-15T05:38:51.860Z,1.70
2019-02-15T05:41:20.528Z,1.40
2019-02-15T05:43:48.938Z,1.83
2019-02-15T05:46:18.116Z,1.40
2019-02-15T05:48:46.533Z,1.87
2019-02-15T05:51:14.970Z,1.50
2019-02-15T05:53:44.141Z,1.53
2019-02-15T05:56:15.384Z,1.43
2019-02-15T05:58:46.341Z,1.40
2019-02-15T06:01:15.106Z,1.40
2019-02-15T06:03:43.513Z,1.60
2019-02-15T06:06:11.924Z,1.57
2019-02-15T06:08:40.363Z,1.50
2019-02-15T06:11:08.793Z,1.50
2019-02-15T06:13:37.216Z,1.70
2019-02-15T06:16:08.545Z,1.53
2019-02-15T06:18:36.975Z,1.53
2019-02-15T06:21:05.500Z,1.50
2019-02-15T06:23:35.202Z,1.60
2019-02-15T06:26:03.616Z,1.90
2019-02-15T06:28:33.044Z,1.70
2019-02-15T06:31:01.372Z,1.40
2019-02-15T06:33:33.195Z,1.50
2019-02-15T06:36:01.909Z,1.47
2019-02-15T06:38:34.754Z,1.63
2019-02-15T06:41:04.480Z,1.50
2019-02-15T06:43:40.209Z,1.60
2019-02-15T06:46:09.747Z,1.60
2019-02-15T06:48:38.425Z,1.80
2019-02-15T06:51:06.861Z,1.70
2019-02-15T06:53:35.272Z,1.53
2019-02-15T06:56:03.711Z,1.40
2019-02-15T06:58:32.117Z,1.50
2019-02-15T07:01:04.905Z,1.70
2019-02-15T07:03:34.953Z,1.60
2019-02-15T07:06:03.385Z,1.40
2019-02-15T07:08:31.793Z,1.97
2019-02-15T07:11:00.245Z,1.60
2019-02-15T07:13:30.688Z,1.53
2019-02-15T07:16:00.169Z,1.97
2019-02-15T07:18:28.605Z,1.60
2019-02-15T07:20:57.012Z,1.53
2019-02-15T07:23:25.463Z,1.70
2019-02-15T07:25:53.872Z,1.80
2019-02-15T07:28:22.300Z,1.73
2019-02-15T07:30:50.710Z,1.60
2019-02-15T07:33:21.064Z,1.50
2019-02-15T07:35:52.469Z,1.77
2019-02-15T07:38:20.923Z,1.40
2019-02-15T07:40:51.411Z,1.43
2019-02-15T07:43:21.725Z,1.50
2019-02-15T07:45:51.617Z,1.70
2019-02-15T07:48:20.033Z,1.50
2019-02-15T07:50:48.456Z,1.53
2019-02-15T07:53:16.868Z,1.30
2019-02-15T07:55:46.314Z,1.33
2019-02-15T07:58:14.732Z,1.20
2019-02-15T08:00:43.244Z,1.60
2019-02-15T08:03:11.648Z,1.83
2019-02-15T08:05:40.084Z,1.50
2019-02-15T08:08:08.775Z,1.43
2019-02-15T08:10:37.205Z,1.37
2019-02-15T08:13:05.627Z,1.50
2019-02-15T08:15:36.452Z,1.60
2019-02-15T08:18:05.236Z,1.40
2019-02-15T08:20:33.647Z,1.53
2019-02-15T08:23:02.084Z,1.60
2019-02-15T08:25:30.490Z,1.60
2019-02-15T08:28:00.820Z,1.23
2019-02-15T08:30:29.248Z,1.67
2019-02-15T08:32:59.310Z,1.60
2019-02-15T08:35:27.708Z,1.70
2019-02-15T08:37:56.155Z,1.40
2019-02-15T08:40:24.558Z,1.60
2019-02-15T08:42:52.982Z,1.30
2019-02-15T08:45:21.667Z,1.50
2019-02-15T08:47:50.421Z,1.37
2019-02-15T08:50:22.212Z,1.60
2019-02-15T08:52:52.542Z,1.50
2019-02-15T08:55:21.988Z,1.40
2019-02-15T08:57:53.085Z,1.53
2019-02-15T09:00:22.542Z,1.40
2019-02-15T09:02:52.584Z,1.40
2019-02-15T09:05:22.924Z,1.30
2019-02-15T09:07:51.573Z,1.30
2019-02-15T09:10:20.008Z,1.40
2019-02-15T09:12:49.260Z,1.40
2019-02-15T09:15:25.120Z,1.53
2019-02-15T09:17:56.129Z,1.40
2019-02-15T09:20:24.848Z,1.57
2019-02-15T09:22:56.236Z,1.30
2019-02-15T09:25:26.564Z,1.50
2019-02-15T09:28:17.798Z,1.93
2019-02-15T09:30:48.058Z,1.50
2019-02-15T09:33:16.472Z,1.80
2019-02-15T09:35:44.882Z,1.67
2019-02-15T09:38:15.157Z,1.40
2019-02-15T09:40:44.821Z,1.20
2019-02-15T09:43:13.257Z,1.43
2019-02-15T09:45:41.661Z,1.53
2019-02-15T09:48:10.544Z,1.50
2019-02-15T09:50:38.940Z,1.50
2019-02-15T09:53:10.903Z,1.50
2019-02-15T09:55:39.624Z,1.33
2019-02-15T09:58:08.033Z,1.53
2019-02-15T10:00:36.470Z,1.50
2019-02-15T10:03:07.723Z,1.73
2019-02-15T10:05:36.152Z,1.50
2019-02-15T10:08:06.685Z,1.70
2019-02-15T10:10:36.136Z,1.60
2019-02-15T10:13:05.854Z,1.63
2019-02-15T10:15:37.124Z,1.47
2019-02-15T10:18:05.532Z,1.37
2019-02-15T10:20:37.213Z,1.40
2019-02-15T10:23:09.687Z,1.50
2019-02-15T10:25:38.337Z,1.30
2019-02-15T10:28:08.380Z,1.40
2019-02-15T10:30:37.338Z,1.60
2019-02-15T10:33:06.026Z,1.40
2019-02-15T10:35:37.170Z,1.73
2019-02-15T10:38:06.173Z,1.70
2019-02-15T10:40:34.577Z,1.60
2019-02-15T10:43:03.281Z,1.30
2019-02-15T10:45:31.692Z,1.40
2019-02-15T10:48:00.397Z,1.70
2019-02-15T10:50:28.805Z,1.70
2019-02-15T10:52:57.220Z,1.60
2019-02-15T10:55:26.905Z,1.60
2019-02-15T10:57:56.629Z,1.10
2019-02-15T11:00:27.357Z,1.40
2019-02-15T11:02:57.025Z,1.60
2019-02-15T11:05:25.733Z,1.53
2019-02-15T11:07:54.704Z,1.30
2019-02-15T11:10:24.168Z,1.60
2019-02-15T11:12:52.702Z,1.47
2019-02-15T11:15:21.128Z,1.67
2019-02-15T11:17:51.462Z,1.30
2019-02-15T11:20:19.700Z,1.70
2019-02-15T11:22:50.061Z,1.83
2019-02-15T11:25:18.411Z,1.50
2019-02-15T11:27:47.612Z,1.50
2019-02-15T11:30:17.253Z,1.47
2019-02-15T11:32:48.849Z,1.73
2019-02-15T11:35:21.421Z,1.43
2019-02-15T11:37:50.421Z,1.40
2019-02-15T11:40:18.841Z,1.40
2019-02-15T11:42:49.832Z,1.60
2019-02-15T11:45:18.241Z,1.57
2019-02-15T11:47:46.916Z,1.70
2019-02-15T11:50:15.603Z,1.40
2019-02-15T11:52:44.007Z,1.70
2019-02-15T11:55:12.453Z,1.73
2019-02-15T11:57:42.446Z,1.57
2019-02-15T12:00:22.517Z,1.60
2019-02-15T12:02:51.561Z,1.80
2019-02-15T12:05:20.182Z,1.80
2019-02-15T12:07:50.681Z,1.97
2019-02-15T12:10:22.201Z,1.63
2019-02-15T12:12:52.362Z,1.80
2019-02-15T12:15:22.046Z,1.80
2019-02-15T12:17:51.740Z,1.70
2019-02-15T12:20:20.596Z,1.73
2019-02-15T12:22:49.029Z,1.60
2019-02-15T12:25:17.445Z,1.93
2019-02-15T12:27:45.888Z,1.70
2019-02-15T12:30:16.309Z,2.00
2019-02-15T12:32:44.758Z,74.27
2019-02-15T12:35:16.118Z,922.43
2019-02-15T12:37:46.454Z,497.23
2019-02-15T12:40:15.200Z,289.00
2019-02-15T12:42:46.321Z,276.63
2019-02-15T12:45:19.203Z,226.70
2019-02-15T12:47:50.493Z,183.53
2019-02-15T12:50:21.845Z,152.17
2019-02-15T12:52:51.181Z,132.77
2019-02-15T12:55:21.256Z,117.83
2019-02-15T12:57:54.075Z,102.90
2019-02-15T13:00:24.430Z,92.77
2019-02-15T13:02:53.126Z,80.27
2019-02-15T13:05:21.598Z,74.60
2019-02-15T13:07:50.132Z,67.57
2019-02-15T13:10:27.659Z,62.83
2019-02-15T13:12:56.077Z,56.83
2019-02-15T13:15:25.318Z,55.77
2019-02-15T13:17:54.841Z,53.60
2019-02-15T13:20:23.253Z,49.60
2019-02-15T13:22:53.601Z,48.50
2019-02-15T13:25:23.556Z,45.77
2019-02-15T13:27:54.895Z,44.37
2019-02-15T13:30:24.664Z,43.57
2019-02-15T13:32:56.792Z,43.33
2019-02-15T13:35:26.694Z,41.70
2019-02-15T13:37:57.847Z,40.33
2019-02-15T13:40:28.438Z,38.00
2019-02-15T13:42:59.504Z,35.23
2019-02-15T13:45:29.666Z,35.50
2019-02-15T13:47:58.062Z,35.20
2019-02-15T13:50:26.499Z,33.50
2019-02-15T13:52:58.150Z,32.50
2019-02-15T13:55:26.597Z,30.37
2019-02-15T13:57:55.020Z,30.63
2019-02-15T14:00:23.728Z,28.00
2019-02-15T14:02:52.143Z,28.50
2019-02-15T14:05:23.507Z,26.53
2019-02-15T14:07:51.922Z,27.03
2019-02-15T14:10:22.350Z,25.67
2019-02-15T14:12:52.441Z,25.40
2019-02-15T14:15:20.854Z,24.90
2019-02-15T14:17:49.562Z,23.97
2019-02-15T14:20:20.412Z,23.87
2019-02-15T14:22:51.743Z,24.10
2019-02-15T14:25:20.513Z,23.63
2019-02-15T14:27:49.519Z,22.47
2019-02-15T14:30:21.826Z,23.37
2019-02-15T14:32:53.169Z,21.53
2019-02-15T14:35:25.009Z,22.47
2019-02-15T14:37:54.473Z,20.57
2019-02-15T14:40:22.896Z,19.53
2019-02-15T14:42:51.317Z,20.50
2019-02-15T14:45:20.005Z,19.07
2019-02-15T14:47:54.981Z,20.07
2019-02-15T14:50:24.294Z,19.23
2019-02-15T14:52:53.640Z,19.30
2019-02-15T14:55:22.081Z,18.30
2019-02-15T14:57:50.489Z,18.57
2019-02-15T15:00:21.329Z,18.07
2019-02-15T15:02:49.756Z,17.53
2019-02-15T15:05:19.831Z,17.17
2019-02-15T15:07:52.109Z,16.80
2019-02-15T15:10:21.957Z,15.97
2019-02-15T15:12:52.727Z,16.10
2019-02-15T15:15:21.653Z,15.40
2019-02-15T15:17:50.353Z,16.03
2019-02-15T15:20:20.698Z,14.57
2019-02-15T15:22:49.088Z,15.17
2019-02-15T15:25:17.506Z,14.10
2019-02-15T15:27:45.949Z,14.00
2019-02-15T15:30:16.108Z,13.27
2019-02-15T15:32:48.967Z,13.67
2019-02-15T15:35:20.717Z,13.03
2019-02-15T15:37:53.832Z,12.57
2019-02-15T15:40:24.854Z,12.13
2019-02-15T15:42:53.625Z,11.83
2019-02-15T15:45:24.867Z,11.07
2019-02-15T15:47:53.401Z,11.27
2019-02-15T15:50:21.843Z,10.93
2019-02-15T15:52:50.248Z,10.70
2019-02-15T15:55:18.697Z,10.70
2019-02-15T15:57:49.250Z,11.20
2019-02-15T16:00:20.148Z,10.07
2019-02-15T16:02:48.667Z,9.40
2019-02-15T16:05:18.201Z,9.93
2019-02-15T16:07:46.613Z,9.13
2019-02-15T16:10:15.509Z,9.27
2019-02-15T16:12:47.061Z,9.53
2019-02-15T16:15:19.325Z,9.60
2019-02-15T16:17:47.752Z,9.53
2019-02-15T16:20:17.723Z,8.70
2019-02-15T16:22:47.786Z,9.10
2019-02-15T16:25:16.198Z,8.43
2019-02-15T16:27:45.702Z,8.30
2019-02-15T16:30:16.584Z,8.13
2019-02-15T16:32:46.748Z,8.10
2019-02-15T16:35:15.666Z,8.17
2019-02-15T16:37:44.345Z,7.13
2019-02-15T16:40:17.319Z,7.60
2019-02-15T16:42:47.099Z,7.20
2019-02-15T16:45:18.191Z,7.07
2019-02-15T16:47:48.688Z,7.50
2019-02-15T16:50:19.755Z,7.10
2019-02-15T16:52:48.428Z,7.33
2019-02-15T16:55:17.137Z,7.03
2019-02-15T16:57:46.921Z,6.50
2019-02-15T17:00:16.553Z,6.93
2019-02-15T17:02:46.784Z,6.03
2019-02-15T17:05:15.212Z,6.80
2019-02-15T17:07:43.620Z,6.57
2019-02-15T17:10:12.321Z,5.53
2019-02-15T17:12:42.040Z,6.53
2019-02-15T17:15:15.006Z,6.20
2019-02-15T17:17:45.069Z,6.20
2019-02-15T17:20:16.333Z,6.93
2019-02-15T17:22:45.018Z,5.93
2019-02-15T17:25:13.425Z,6.03
2019-02-15T17:27:41.865Z,7.40
2019-02-15T17:30:12.985Z,7.17
2019-02-15T17:32:41.424Z,6.27
2019-02-15T17:35:12.015Z,6.50
2019-02-15T17:37:40.422Z,6.67
2019-02-15T17:40:11.855Z,6.80
2019-02-15T17:42:43.186Z,6.07
2019-02-15T17:45:12.370Z,6.17
2019-02-15T17:47:42.145Z,6.90
2019-02-15T17:50:11.897Z,6.77
2019-02-15T17:52:40.313Z,6.37
2019-02-15T17:55:10.355Z,5.83
2019-02-15T17:57:38.768Z,5.97
2019-02-15T18:00:10.834Z,6.10
2019-02-15T18:02:39.239Z,6.00
2019-02-15T18:05:10.824Z,5.80
2019-02-15T18:07:39.262Z,6.53
2019-02-15T18:10:07.673Z,6.70
2019-02-15T18:12:36.110Z,6.47
2019-02-15T18:15:05.061Z,6.30
2019-02-15T18:17:33.500Z,6.60
2019-02-15T18:20:01.922Z,5.97
2019-02-15T18:22:30.605Z,7.10
2019-02-15T18:24:59.046Z,6.47
2019-02-15T18:27:27.457Z,5.73
2019-02-15T18:29:56.710Z,5.43
2019-02-15T18:32:26.749Z,5.93
2019-02-15T18:34:57.310Z,5.47
2019-02-15T18:37:25.716Z,5.10
2019-02-15T18:39:54.161Z,5.37
2019-02-15T18:42:24.351Z,4.73
2019-02-15T18:44:52.824Z,5.63
2019-02-15T18:47:21.233Z,5.40
2019-02-15T18:49:49.641Z,5.40
2019-02-15T18:52:19.325Z,5.03
2019-02-15T18:54:48.596Z,5.73
2019-02-15T18:57:17.341Z,3.80
2019-02-15T18:59:45.749Z,4.57
2019-02-15T19:02:14.185Z,5.30
2019-02-15T19:04:42.597Z,4.63
2019-02-15T19:07:11.288Z,4.07
2019-02-15T19:09:39.693Z,3.90
2019-02-15T19:12:08.122Z,4.27
2019-02-15T19:14:37.122Z,4.27
2019-02-15T19:17:06.128Z,4.10
2019-02-15T19:19:36.549Z,3.63
2019-02-15T19:22:07.622Z,3.77
2019-02-15T19:24:36.052Z,3.50
2019-02-15T19:27:04.764Z,3.47
2019-02-15T19:29:34.209Z,3.87
2019-02-15T19:32:04.146Z,3.77
2019-02-15T19:34:32.509Z,3.57
2019-02-15T19:37:00.921Z,3.20
2019-02-15T19:39:30.202Z,3.53
2019-02-15T19:42:03.753Z,3.80
2019-02-15T19:44:35.270Z,3.53
2019-02-15T19:47:05.058Z,3.30
2019-02-15T19:49:38.781Z,3.90
2019-02-15T19:52:07.840Z,2.90
2019-02-15T19:54:36.249Z,3.33
2019-02-15T19:57:05.667Z,3.20
2019-02-15T19:59:36.332Z,3.20
2019-02-15T20:02:07.479Z,3.13
2019-02-15T20:04:36.811Z,3.27
2019-02-15T20:07:06.978Z,3.30
2019-02-15T20:09:36.751Z,3.43
2019-02-15T20:12:06.725Z,3.20
2019-02-15T20:14:37.031Z,2.90
2019-02-15T20:17:05.438Z,2.87
2019-02-15T20:19:33.891Z,3.23
2019-02-15T20:22:02.973Z,3.27
2019-02-15T20:24:37.284Z,3.13
2019-02-15T20:27:07.046Z,2.77
2019-02-15T20:29:36.780Z,3.20
2019-02-15T20:32:06.467Z,2.30
2019-02-15T20:34:35.174Z,2.63
2019-02-15T20:37:03.584Z,2.60
2019-02-15T20:39:32.013Z,2.97
2019-02-15T20:42:00.423Z,2.50
2019-02-15T20:44:28.864Z,3.00
2019-02-15T20:46:57.273Z,2.80
2019-02-15T20:49:25.708Z,2.80
2019-02-15T20:51:54.125Z,2.60
2019-02-15T20:54:25.650Z,2.73
2019-02-15T20:56:57.035Z,2.87
2019-02-15T20:59:28.457Z,2.83
2019-02-15T21:01:59.533Z,2.60
2019-02-15T21:04:29.814Z,2.60
2019-02-15T21:07:00.797Z,3.13
2019-02-15T21:09:30.940Z,2.60
2019-02-15T21:12:01.234Z,2.80
2019-02-15T21:14:30.886Z,2.13
2019-02-15T21:17:00.684Z,2.70
2019-02-15T21:19:30.355Z,2.50
2019-02-15T21:22:01.812Z,2.73
2019-02-15T21:24:33.072Z,2.20
2019-02-15T21:27:03.152Z,2.10
2019-02-15T21:29:32.133Z,2.47
2019-02-15T21:32:01.893Z,2.10
2019-02-15T21:34:30.306Z,2.67
2019-02-15T21:37:01.596Z,2.60
2019-02-15T21:39:30.305Z,2.23
2019-02-15T21:41:58.716Z,2.40
2019-02-15T21:44:27.397Z,2.43
2019-02-15T21:46:57.196Z,2.03
2019-02-15T21:49:27.652Z,2.67
2019-02-15T21:51:56.052Z,2.67
2019-02-15T21:54:24.989Z,2.10
2019-02-15T21:56:56.581Z,2.30
2019-02-15T21:59:25.062Z,2.40
2019-02-15T22:01:54.477Z,2.40
2019-02-15T22:04:22.877Z,2.47
2019-02-15T22:06:51.313Z,2.70
2019-02-15T22:09:19.716Z,2.20
2019-02-15T22:11:48.144Z,2.00
2019-02-15T22:14:16.570Z,2.37
2019-02-15T22:16:45.005Z,2.30
2019-02-15T22:19:15.357Z,2.20
2019-02-15T22:21:43.489Z,2.93
2019-02-15T22:24:14.921Z,2.20
2019-02-15T22:26:44.985Z,2.63
2019-02-15T22:29:15.934Z,2.57
2019-02-15T22:31:46.489Z,2.27
2019-02-15T22:34:17.829Z,2.30
2019-02-15T22:36:48.085Z,2.30
2019-02-15T22:39:18.140Z,2.40
2019-02-15T22:41:48.297Z,2.20
2019-02-15T22:44:19.397Z,2.53
2019-02-15T22:46:49.432Z,2.40
2019-02-15T22:49:17.871Z,2.70
2019-02-15T22:51:48.385Z,2.40
2019-02-15T22:54:20.025Z,2.50
2019-02-15T22:56:48.429Z,2.10
2019-02-15T22:59:18.489Z,2.43
2019-02-15T23:01:46.892Z,2.37
2019-02-15T23:04:15.320Z,2.50
2019-02-15T23:06:44.208Z,2.30
2019-02-15T23:09:14.568Z,2.20
2019-02-15T23:11:43.892Z,2.10
2019-02-15T23:14:13.216Z,2.43
2019-02-15T23:16:44.626Z,2.20
2019-02-15T23:19:13.594Z,2.00
2019-02-15T23:21:43.661Z,2.50
2019-02-15T23:24:13.336Z,2.60
2019-02-15T23:26:41.782Z,2.40
2019-02-15T23:29:10.208Z,2.20
2019-02-15T23:31:38.629Z,2.00
2019-02-15T23:34:07.058Z,2.43
2019-02-15T23:36:35.460Z,2.00
2019-02-15T23:39:04.429Z,2.53
2019-02-15T23:41:32.844Z,2.27
2019-02-15T23:44:03.170Z,2.30
2019-02-15T23:46:31.581Z,2.20
2019-02-15T23:49:00.019Z,1.93
2019-02-15T23:51:29.185Z,2.07
2019-02-15T23:53:58.944Z,2.40
2019-02-15T23:56:28.270Z,2.30
2019-02-15T23:58:57.836Z,2.13
